sensor_id;sensor_type;location;lat;lon;timestamp;temperature;humidity
21108;DHT22;10712;52.944;9.098;2023-07-29T00:02:08;18.50;94.30
21108;DHT22;10712;52.944;9.098;2023-07-29T00:04:34;18.50;94.30
21108;DHT22;10712;52.944;9.098;2023-07-29T00:07:00;18.50;94.30
21108;DHT22;10712;52.944;9.098;2023-07-29T00:09:26;18.50;94.30
21108;DHT22;10712;52.944;9.098;2023-07-29T00:11:51;18.50;94.30
21108;DHT22;10712;52.944;9.098;2023-07-29T00:14:17;18.50;94.30
21108;DHT22;10712;52.944;9.098;2023-07-29T00:16:43;18.40;94.30
21108;DHT22;10712;52.944;9.098;2023-07-29T00:19:09;18.40;94.30
21108;DHT22;10712;52.944;9.098;2023-07-29T00:21:34;18.30;94.30
21108;DHT22;10712;52.944;9.098;2023-07-29T00:24:00;18.30;94.30
21108;DHT22;10712;52.944;9.098;2023-07-29T00:26:27;18.30;94.30
21108;DHT22;10712;52.944;9.098;2023-07-29T00:28:55;18.20;94.30
21108;DHT22;10712;52.944;9.098;2023-07-29T00:31:21;18.20;94.30
21108;DHT22;10712;52.944;9.098;2023-07-29T00:33:47;18.20;94.30
21108;DHT22;10712;52.944;9.098;2023-07-29T00:36:14;18.10;94.30
21108;DHT22;10712;52.944;9.098;2023-07-29T00:38:39;18.10;94.30
21108;DHT22;10712;52.944;9.098;2023-07-29T00:41:06;18.10;94.30
21108;DHT22;10712;52.944;9.098;2023-07-29T00:43:32;18.10;94.30
21108;DHT22;10712;52.944;9.098;2023-07-29T00:46:00;18.00;94.30
21108;DHT22;10712;52.944;9.098;2023-07-29T00:48:26;18.00;94.30
21108;DHT22;10712;52.944;9.098;2023-07-29T00:50:54;18.00;94.30
21108;DHT22;10712;52.944;9.098;2023-07-29T00:53:20;17.90;94.30
21108;DHT22;10712;52.944;9.098;2023-07-29T00:55:46;17.90;94.30
21108;DHT22;10712;52.944;9.098;2023-07-29T00:58:12;17.90;94.30
21108;DHT22;10712;52.944;9.098;2023-07-29T01:00:38;17.90;94.30
21108;DHT22;10712;52.944;9.098;2023-07-29T01:03:04;17.90;94.30
21108;DHT22;10712;52.944;9.098;2023-07-29T01:05:49;17.80;94.30
21108;DHT22;10712;52.944;9.098;2023-07-29T01:08:37;17.80;94.30
21108;DHT22;10712;52.944;9.098;2023-07-29T01:14:33;17.70;94.30
21108;DHT22;10712;52.944;9.098;2023-07-29T01:17:05;17.70;94.30
21108;DHT22;10712;52.944;9.098;2023-07-29T01:22:35;17.70;94.30
21108;DHT22;10712;52.944;9.098;2023-07-29T01:25:03;17.70;94.30
21108;DHT22;10712;52.944;9.098;2023-07-29T01:27:30;17.60;94.30
21108;DHT22;10712;52.944;9.098;2023-07-29T01:29:57;17.60;94.30
21108;DHT22;10712;52.944;9.098;2023-07-29T01:32:29;17.60;94.30
21108;DHT22;10712;52.944;9.098;2023-07-29T01:35:41;17.60;94.30
21108;DHT22;10712;52.944;9.098;2023-07-29T01:38:17;17.60;94.30
21108;DHT22;10712;52.944;9.098;2023-07-29T01:40:45;17.60;94.30
21108;DHT22;10712;52.944;9.098;2023-07-29T01:43:12;17.60;94.30
21108;DHT22;10712;52.944;9.098;2023-07-29T01:45:38;17.60;94.30
21108;DHT22;10712;52.944;9.098;2023-07-29T01:48:05;17.60;94.30
21108;DHT22;10712;52.944;9.098;2023-07-29T01:50:32;17.60;94.30
21108;DHT22;10712;52.944;9.098;2023-07-29T01:52:58;17.60;94.30
21108;DHT22;10712;52.944;9.098;2023-07-29T01:55:25;17.60;94.30
21108;DHT22;10712;52.944;9.098;2023-07-29T01:57:51;17.60;94.30
21108;DHT22;10712;52.944;9.098;2023-07-29T02:00:18;17.60;94.30
21108;DHT22;10712;52.944;9.098;2023-07-29T02:02:45;17.50;94.30
21108;DHT22;10712;52.944;9.098;2023-07-29T02:05:11;17.50;94.30
21108;DHT22;10712;52.944;9.098;2023-07-29T02:07:37;17.50;94.30
21108;DHT22;10712;52.944;9.098;2023-07-29T02:10:02;17.50;94.30
21108;DHT22;10712;52.944;9.098;2023-07-29T02:12:28;17.50;94.30
21108;DHT22;10712;52.944;9.098;2023-07-29T02:14:54;17.50;94.30
21108;DHT22;10712;52.944;9.098;2023-07-29T02:17:20;17.50;94.30
21108;DHT22;10712;52.944;9.098;2023-07-29T02:19:46;17.50;94.30
21108;DHT22;10712;52.944;9.098;2023-07-29T02:22:16;17.50;94.30
21108;DHT22;10712;52.944;9.098;2023-07-29T02:24:43;17.50;94.30
21108;DHT22;10712;52.944;9.098;2023-07-29T02:27:09;17.50;94.30
21108;DHT22;10712;52.944;9.098;2023-07-29T02:29:35;17.50;94.30
21108;DHT22;10712;52.944;9.098;2023-07-29T02:32:02;17.50;94.30
21108;DHT22;10712;52.944;9.098;2023-07-29T02:34:29;17.50;94.30
21108;DHT22;10712;52.944;9.098;2023-07-29T02:36:55;17.50;94.30
21108;DHT22;10712;52.944;9.098;2023-07-29T02:39:21;17.40;94.30
21108;DHT22;10712;52.944;9.098;2023-07-29T02:41:48;17.40;94.30
21108;DHT22;10712;52.944;9.098;2023-07-29T02:44:15;17.40;94.30
21108;DHT22;10712;52.944;9.098;2023-07-29T02:46:41;17.40;94.30
21108;DHT22;10712;52.944;9.098;2023-07-29T02:49:07;17.40;94.30
21108;DHT22;10712;52.944;9.098;2023-07-29T02:51:33;17.40;94.30
21108;DHT22;10712;52.944;9.098;2023-07-29T02:53:59;17.30;94.30
21108;DHT22;10712;52.944;9.098;2023-07-29T02:56:25;17.30;94.30
21108;DHT22;10712;52.944;9.098;2023-07-29T02:58:51;17.30;94.30
21108;DHT22;10712;52.944;9.098;2023-07-29T03:01:17;17.20;94.30
21108;DHT22;10712;52.944;9.098;2023-07-29T03:03:44;17.20;94.30
21108;DHT22;10712;52.944;9.098;2023-07-29T03:06:11;17.20;94.30
21108;DHT22;10712;52.944;9.098;2023-07-29T03:08:39;17.20;94.30
21108;DHT22;10712;52.944;9.098;2023-07-29T03:11:14;17.20;94.30
21108;DHT22;10712;52.944;9.098;2023-07-29T03:13:41;17.10;94.30
21108;DHT22;10712;52.944;9.098;2023-07-29T03:16:12;17.10;94.30
21108;DHT22;10712;52.944;9.098;2023-07-29T03:18:48;17.10;94.30
21108;DHT22;10712;52.944;9.098;2023-07-29T03:21:14;17.10;94.30
21108;DHT22;10712;52.944;9.098;2023-07-29T03:23:40;17.10;94.30
21108;DHT22;10712;52.944;9.098;2023-07-29T03:26:06;17.00;94.30
21108;DHT22;10712;52.944;9.098;2023-07-29T03:28:40;17.00;94.30
21108;DHT22;10712;52.944;9.098;2023-07-29T03:31:07;17.00;94.30
21108;DHT22;10712;52.944;9.098;2023-07-29T03:33:33;17.00;94.30
21108;DHT22;10712;52.944;9.098;2023-07-29T03:35:59;16.90;94.30
21108;DHT22;10712;52.944;9.098;2023-07-29T03:38:25;16.90;94.30
21108;DHT22;10712;52.944;9.098;2023-07-29T03:40:51;16.90;94.30
21108;DHT22;10712;52.944;9.098;2023-07-29T03:43:19;16.90;94.30
21108;DHT22;10712;52.944;9.098;2023-07-29T03:45:44;16.90;94.30
21108;DHT22;10712;52.944;9.098;2023-07-29T03:48:10;16.80;94.30
21108;DHT22;10712;52.944;9.098;2023-07-29T03:50:36;16.90;94.30
21108;DHT22;10712;52.944;9.098;2023-07-29T03:53:03;16.90;94.30
21108;DHT22;10712;52.944;9.098;2023-07-29T03:55:30;16.90;94.30
21108;DHT22;10712;52.944;9.098;2023-07-29T03:58:00;16.90;94.30
21108;DHT22;10712;52.944;9.098;2023-07-29T04:00:27;16.90;94.30
21108;DHT22;10712;52.944;9.098;2023-07-29T04:02:53;16.90;94.30
21108;DHT22;10712;52.944;9.098;2023-07-29T04:05:19;16.90;94.30
21108;DHT22;10712;52.944;9.098;2023-07-29T04:07:45;16.90;94.30
21108;DHT22;10712;52.944;9.098;2023-07-29T04:10:11;16.90;94.30
21108;DHT22;10712;52.944;9.098;2023-07-29T04:12:38;17.00;94.30
21108;DHT22;10712;52.944;9.098;2023-07-29T04:15:04;17.00;94.30
21108;DHT22;10712;52.944;9.098;2023-07-29T04:17:30;17.00;94.30
21108;DHT22;10712;52.944;9.098;2023-07-29T04:19:56;17.00;94.30
21108;DHT22;10712;52.944;9.098;2023-07-29T04:22:27;17.00;94.30
21108;DHT22;10712;52.944;9.098;2023-07-29T04:24:53;17.00;94.30
21108;DHT22;10712;52.944;9.098;2023-07-29T04:27:19;17.00;94.30
21108;DHT22;10712;52.944;9.098;2023-07-29T04:29:45;17.00;94.30
21108;DHT22;10712;52.944;9.098;2023-07-29T04:32:11;17.00;94.30
21108;DHT22;10712;52.944;9.098;2023-07-29T04:34:36;17.00;94.30
21108;DHT22;10712;52.944;9.098;2023-07-29T04:37:02;17.10;94.30
21108;DHT22;10712;52.944;9.098;2023-07-29T04:39:28;17.10;94.30
21108;DHT22;10712;52.944;9.098;2023-07-29T04:41:54;17.10;94.30
21108;DHT22;10712;52.944;9.098;2023-07-29T04:44:20;17.10;94.30
21108;DHT22;10712;52.944;9.098;2023-07-29T04:46:45;17.10;94.30
21108;DHT22;10712;52.944;9.098;2023-07-29T04:49:11;17.10;94.30
21108;DHT22;10712;52.944;9.098;2023-07-29T04:51:37;17.20;94.30
21108;DHT22;10712;52.944;9.098;2023-07-29T04:54:03;17.20;94.30
21108;DHT22;10712;52.944;9.098;2023-07-29T04:56:29;17.20;94.30
21108;DHT22;10712;52.944;9.098;2023-07-29T04:58:55;17.20;94.30
21108;DHT22;10712;52.944;9.098;2023-07-29T05:01:21;17.30;94.30
21108;DHT22;10712;52.944;9.098;2023-07-29T05:03:47;17.30;94.30
21108;DHT22;10712;52.944;9.098;2023-07-29T05:06:13;17.30;94.30
21108;DHT22;10712;52.944;9.098;2023-07-29T05:08:38;17.30;94.30
21108;DHT22;10712;52.944;9.098;2023-07-29T05:11:04;17.40;94.30
21108;DHT22;10712;52.944;9.098;2023-07-29T05:13:30;17.40;94.30
21108;DHT22;10712;52.944;9.098;2023-07-29T05:15:56;17.40;94.30
21108;DHT22;10712;52.944;9.098;2023-07-29T05:18:22;17.50;94.30
21108;DHT22;10712;52.944;9.098;2023-07-29T05:20:49;17.50;94.30
21108;DHT22;10712;52.944;9.098;2023-07-29T05:23:14;17.50;94.30
21108;DHT22;10712;52.944;9.098;2023-07-29T05:25:41;17.50;94.30
21108;DHT22;10712;52.944;9.098;2023-07-29T05:28:07;17.60;94.30
21108;DHT22;10712;52.944;9.098;2023-07-29T05:30:33;17.60;94.30
21108;DHT22;10712;52.944;9.098;2023-07-29T05:33:03;17.60;94.30
21108;DHT22;10712;52.944;9.098;2023-07-29T05:35:30;17.70;94.30
21108;DHT22;10712;52.944;9.098;2023-07-29T05:37:56;17.80;94.30
21108;DHT22;10712;52.944;9.098;2023-07-29T05:40:22;17.90;94.30
21108;DHT22;10712;52.944;9.098;2023-07-29T05:42:48;17.90;94.30
21108;DHT22;10712;52.944;9.098;2023-07-29T05:45:14;18.00;94.30
21108;DHT22;10712;52.944;9.098;2023-07-29T05:47:41;18.10;94.30
21108;DHT22;10712;52.944;9.098;2023-07-29T05:50:07;18.10;94.30
21108;DHT22;10712;52.944;9.098;2023-07-29T05:52:34;18.20;94.30
21108;DHT22;10712;52.944;9.098;2023-07-29T05:55:00;18.20;94.30
21108;DHT22;10712;52.944;9.098;2023-07-29T05:57:27;18.20;94.30
21108;DHT22;10712;52.944;9.098;2023-07-29T05:59:53;18.30;94.30
21108;DHT22;10712;52.944;9.098;2023-07-29T06:02:19;18.30;94.30
21108;DHT22;10712;52.944;9.098;2023-07-29T06:04:45;18.30;94.30
21108;DHT22;10712;52.944;9.098;2023-07-29T06:07:11;18.30;94.30
21108;DHT22;10712;52.944;9.098;2023-07-29T06:09:36;18.40;94.30
21108;DHT22;10712;52.944;9.098;2023-07-29T06:12:02;18.40;94.30
21108;DHT22;10712;52.944;9.098;2023-07-29T06:14:28;18.40;94.30
21108;DHT22;10712;52.944;9.098;2023-07-29T06:16:54;18.40;94.30
21108;DHT22;10712;52.944;9.098;2023-07-29T06:19:20;18.40;94.30
21108;DHT22;10712;52.944;9.098;2023-07-29T06:21:46;18.40;94.30
21108;DHT22;10712;52.944;9.098;2023-07-29T06:24:12;18.40;94.30
21108;DHT22;10712;52.944;9.098;2023-07-29T06:26:38;18.50;94.30
21108;DHT22;10712;52.944;9.098;2023-07-29T06:29:04;18.50;94.30
21108;DHT22;10712;52.944;9.098;2023-07-29T06:31:30;18.50;94.30
21108;DHT22;10712;52.944;9.098;2023-07-29T06:33:58;18.50;94.30
21108;DHT22;10712;52.944;9.098;2023-07-29T06:36:24;18.50;94.30
21108;DHT22;10712;52.944;9.098;2023-07-29T06:38:49;18.50;94.30
21108;DHT22;10712;52.944;9.098;2023-07-29T06:41:15;18.50;94.30
21108;DHT22;10712;52.944;9.098;2023-07-29T06:43:42;18.60;94.30
21108;DHT22;10712;52.944;9.098;2023-07-29T06:46:07;18.60;94.30
21108;DHT22;10712;52.944;9.098;2023-07-29T06:48:33;18.60;94.30
21108;DHT22;10712;52.944;9.098;2023-07-29T06:50:59;18.60;94.30
21108;DHT22;10712;52.944;9.098;2023-07-29T06:53:28;18.60;94.30
21108;DHT22;10712;52.944;9.098;2023-07-29T06:55:54;18.60;94.30
21108;DHT22;10712;52.944;9.098;2023-07-29T06:58:21;18.70;94.30
21108;DHT22;10712;52.944;9.098;2023-07-29T07:00:47;18.70;94.30
21108;DHT22;10712;52.944;9.098;2023-07-29T07:03:12;18.70;94.30
21108;DHT22;10712;52.944;9.098;2023-07-29T07:05:38;18.70;94.30
21108;DHT22;10712;52.944;9.098;2023-07-29T07:08:04;18.70;94.30
21108;DHT22;10712;52.944;9.098;2023-07-29T07:10:30;18.70;94.30
21108;DHT22;10712;52.944;9.098;2023-07-29T07:12:56;18.80;94.30
21108;DHT22;10712;52.944;9.098;2023-07-29T07:15:21;18.80;94.30
21108;DHT22;10712;52.944;9.098;2023-07-29T07:17:47;18.80;94.30
21108;DHT22;10712;52.944;9.098;2023-07-29T07:20:13;18.80;94.30
21108;DHT22;10712;52.944;9.098;2023-07-29T07:22:39;18.90;94.30
21108;DHT22;10712;52.944;9.098;2023-07-29T07:25:05;18.90;94.30
21108;DHT22;10712;52.944;9.098;2023-07-29T07:27:30;18.90;94.30
21108;DHT22;10712;52.944;9.098;2023-07-29T07:29:56;19.00;94.30
21108;DHT22;10712;52.944;9.098;2023-07-29T07:32:22;19.00;94.30
21108;DHT22;10712;52.944;9.098;2023-07-29T07:34:48;19.00;94.30
21108;DHT22;10712;52.944;9.098;2023-07-29T07:37:13;19.00;94.30
21108;DHT22;10712;52.944;9.098;2023-07-29T07:39:39;19.10;94.30
21108;DHT22;10712;52.944;9.098;2023-07-29T07:42:05;19.10;94.30
21108;DHT22;10712;52.944;9.098;2023-07-29T07:44:31;19.10;94.30
21108;DHT22;10712;52.944;9.098;2023-07-29T07:46:57;19.10;94.30
21108;DHT22;10712;52.944;9.098;2023-07-29T07:49:23;19.10;94.30
21108;DHT22;10712;52.944;9.098;2023-07-29T07:51:49;19.10;94.30
21108;DHT22;10712;52.944;9.098;2023-07-29T07:54:15;19.10;94.30
21108;DHT22;10712;52.944;9.098;2023-07-29T07:56:40;19.20;94.30
21108;DHT22;10712;52.944;9.098;2023-07-29T07:59:06;19.10;94.30
21108;DHT22;10712;52.944;9.098;2023-07-29T08:01:36;19.20;94.30
21108;DHT22;10712;52.944;9.098;2023-07-29T08:04:03;19.20;94.30
21108;DHT22;10712;52.944;9.098;2023-07-29T08:06:30;19.20;94.30
21108;DHT22;10712;52.944;9.098;2023-07-29T08:08:57;19.20;94.30
21108;DHT22;10712;52.944;9.098;2023-07-29T08:11:23;19.20;94.30
21108;DHT22;10712;52.944;9.098;2023-07-29T08:13:49;19.20;94.30
21108;DHT22;10712;52.944;9.098;2023-07-29T08:16:15;19.20;94.30
21108;DHT22;10712;52.944;9.098;2023-07-29T08:18:41;19.20;94.30
21108;DHT22;10712;52.944;9.098;2023-07-29T08:21:07;19.20;94.30
21108;DHT22;10712;52.944;9.098;2023-07-29T08:23:34;19.20;94.30
21108;DHT22;10712;52.944;9.098;2023-07-29T08:26:03;19.20;94.30
21108;DHT22;10712;52.944;9.098;2023-07-29T08:28:32;19.20;94.30
21108;DHT22;10712;52.944;9.098;2023-07-29T08:31:02;19.20;94.30
21108;DHT22;10712;52.944;9.098;2023-07-29T08:33:29;19.20;94.30
21108;DHT22;10712;52.944;9.098;2023-07-29T08:35:57;19.30;94.30
21108;DHT22;10712;52.944;9.098;2023-07-29T08:38:22;19.30;94.30
21108;DHT22;10712;52.944;9.098;2023-07-29T08:41:10;19.40;94.30
21108;DHT22;10712;52.944;9.098;2023-07-29T08:43:43;19.40;94.30
21108;DHT22;10712;52.944;9.098;2023-07-29T08:46:33;19.50;94.30
21108;DHT22;10712;52.944;9.098;2023-07-29T08:48:59;19.50;94.30
21108;DHT22;10712;52.944;9.098;2023-07-29T08:51:26;19.50;94.30
21108;DHT22;10712;52.944;9.098;2023-07-29T08:53:53;19.50;94.30
21108;DHT22;10712;52.944;9.098;2023-07-29T08:56:19;19.60;94.30
21108;DHT22;10712;52.944;9.098;2023-07-29T08:58:45;19.60;94.30
21108;DHT22;10712;52.944;9.098;2023-07-29T09:01:12;19.70;94.30
21108;DHT22;10712;52.944;9.098;2023-07-29T09:03:37;19.70;94.30
21108;DHT22;10712;52.944;9.098;2023-07-29T09:06:03;19.80;94.30
21108;DHT22;10712;52.944;9.098;2023-07-29T09:08:31;19.80;94.30
21108;DHT22;10712;52.944;9.098;2023-07-29T09:10:58;19.90;94.30
21108;DHT22;10712;52.944;9.098;2023-07-29T09:13:24;19.90;94.10
21108;DHT22;10712;52.944;9.098;2023-07-29T09:15:54;19.90;93.80
21108;DHT22;10712;52.944;9.098;2023-07-29T09:18:22;19.90;93.70
21108;DHT22;10712;52.944;9.098;2023-07-29T09:20:49;20.00;93.30
21108;DHT22;10712;52.944;9.098;2023-07-29T09:23:16;20.00;93.10
21108;DHT22;10712;52.944;9.098;2023-07-29T09:25:42;20.00;92.70
21108;DHT22;10712;52.944;9.098;2023-07-29T09:28:12;20.10;92.20
21108;DHT22;10712;52.944;9.098;2023-07-29T09:30:40;20.10;91.80
21108;DHT22;10712;52.944;9.098;2023-07-29T09:33:08;20.20;91.40
21108;DHT22;10712;52.944;9.098;2023-07-29T09:35:36;20.30;91.30
21108;DHT22;10712;52.944;9.098;2023-07-29T09:38:03;20.30;91.10
21108;DHT22;10712;52.944;9.098;2023-07-29T09:40:37;20.30;90.70
21108;DHT22;10712;52.944;9.098;2023-07-29T09:43:04;20.30;90.20
21108;DHT22;10712;52.944;9.098;2023-07-29T09:45:33;20.30;89.80
21108;DHT22;10712;52.944;9.098;2023-07-29T09:48:01;20.30;88.70
21108;DHT22;10712;52.944;9.098;2023-07-29T09:50:28;20.30;88.70
21108;DHT22;10712;52.944;9.098;2023-07-29T09:52:55;20.30;88.60
21108;DHT22;10712;52.944;9.098;2023-07-29T09:55:26;20.30;88.90
21108;DHT22;10712;52.944;9.098;2023-07-29T09:57:57;20.30;89.20
21108;DHT22;10712;52.944;9.098;2023-07-29T10:00:28;20.30;89.10
21108;DHT22;10712;52.944;9.098;2023-07-29T10:02:54;20.40;89.10
21108;DHT22;10712;52.944;9.098;2023-07-29T10:05:22;20.40;89.00
21108;DHT22;10712;52.944;9.098;2023-07-29T10:07:49;20.50;89.10
21108;DHT22;10712;52.944;9.098;2023-07-29T10:10:16;20.60;88.70
21108;DHT22;10712;52.944;9.098;2023-07-29T10:12:42;20.60;88.00
21108;DHT22;10712;52.944;9.098;2023-07-29T10:15:09;20.70;87.40
21108;DHT22;10712;52.944;9.098;2023-07-29T10:17:37;20.80;86.90
21108;DHT22;10712;52.944;9.098;2023-07-29T10:20:10;20.90;86.70
21108;DHT22;10712;52.944;9.098;2023-07-29T10:25:08;20.90;84.80
21108;DHT22;10712;52.944;9.098;2023-07-29T10:30:12;21.00;85.00
21108;DHT22;10712;52.944;9.098;2023-07-29T10:32:40;21.10;85.10
21108;DHT22;10712;52.944;9.098;2023-07-29T10:35:11;21.20;84.30
21108;DHT22;10712;52.944;9.098;2023-07-29T10:37:41;21.20;84.60
21108;DHT22;10712;52.944;9.098;2023-07-29T10:40:09;21.20;84.00
21108;DHT22;10712;52.944;9.098;2023-07-29T10:42:37;21.20;82.00
21108;DHT22;10712;52.944;9.098;2023-07-29T10:45:18;21.20;81.80
21108;DHT22;10712;52.944;9.098;2023-07-29T10:47:44;21.20;81.60
21108;DHT22;10712;52.944;9.098;2023-07-29T10:50:19;21.20;81.30
21108;DHT22;10712;52.944;9.098;2023-07-29T10:52:51;21.20;81.00
21108;DHT22;10712;52.944;9.098;2023-07-29T10:55:37;21.30;81.30
21108;DHT22;10712;52.944;9.098;2023-07-29T10:58:12;21.40;81.40
21108;DHT22;10712;52.944;9.098;2023-07-29T11:00:44;21.50;82.40
21108;DHT22;10712;52.944;9.098;2023-07-29T11:03:12;21.60;81.90
21108;DHT22;10712;52.944;9.098;2023-07-29T11:05:43;21.70;83.10
21108;DHT22;10712;52.944;9.098;2023-07-29T11:08:29;21.80;82.90
21108;DHT22;10712;52.944;9.098;2023-07-29T11:13:33;22.00;79.40
21108;DHT22;10712;52.944;9.098;2023-07-29T11:16:03;22.10;79.00
21108;DHT22;10712;52.944;9.098;2023-07-29T11:18:34;22.10;78.60
21108;DHT22;10712;52.944;9.098;2023-07-29T11:21:02;22.10;77.70
21108;DHT22;10712;52.944;9.098;2023-07-29T11:23:34;22.00;77.90
21108;DHT22;10712;52.944;9.098;2023-07-29T11:26:03;22.00;78.10
21108;DHT22;10712;52.944;9.098;2023-07-29T11:28:30;21.90;78.50
21108;DHT22;10712;52.944;9.098;2023-07-29T11:30:56;21.80;77.70
21108;DHT22;10712;52.944;9.098;2023-07-29T11:33:27;21.80;78.20
21108;DHT22;10712;52.944;9.098;2023-07-29T11:35:54;21.80;77.60
21108;DHT22;10712;52.944;9.098;2023-07-29T11:38:21;21.80;77.60
21108;DHT22;10712;52.944;9.098;2023-07-29T11:40:59;21.80;77.30
21108;DHT22;10712;52.944;9.098;2023-07-29T11:43:28;21.80;77.40
21108;DHT22;10712;52.944;9.098;2023-07-29T11:45:54;21.80;77.60
21108;DHT22;10712;52.944;9.098;2023-07-29T11:48:32;21.80;77.40
21108;DHT22;10712;52.944;9.098;2023-07-29T11:50:58;21.80;76.60
21108;DHT22;10712;52.944;9.098;2023-07-29T11:53:30;21.70;76.40
21108;DHT22;10712;52.944;9.098;2023-07-29T11:55:57;21.70;76.30
21108;DHT22;10712;52.944;9.098;2023-07-29T11:58:23;21.70;75.90
21108;DHT22;10712;52.944;9.098;2023-07-29T12:00:49;21.80;75.70
21108;DHT22;10712;52.944;9.098;2023-07-29T12:03:16;21.80;76.20
21108;DHT22;10712;52.944;9.098;2023-07-29T12:05:43;21.80;75.60
21108;DHT22;10712;52.944;9.098;2023-07-29T12:08:10;21.80;73.70
21108;DHT22;10712;52.944;9.098;2023-07-29T12:10:36;21.70;73.60
21108;DHT22;10712;52.944;9.098;2023-07-29T12:13:03;21.70;74.30
21108;DHT22;10712;52.944;9.098;2023-07-29T12:15:29;21.70;74.30
21108;DHT22;10712;52.944;9.098;2023-07-29T12:17:56;21.70;74.80
21108;DHT22;10712;52.944;9.098;2023-07-29T12:20:23;21.80;75.00
21108;DHT22;10712;52.944;9.098;2023-07-29T12:22:54;21.80;75.10
21108;DHT22;10712;52.944;9.098;2023-07-29T12:25:21;21.80;74.90
21108;DHT22;10712;52.944;9.098;2023-07-29T12:27:48;21.80;74.60
21108;DHT22;10712;52.944;9.098;2023-07-29T12:30:14;21.80;74.70
21108;DHT22;10712;52.944;9.098;2023-07-29T12:32:44;21.80;74.40
21108;DHT22;10712;52.944;9.098;2023-07-29T12:35:11;21.90;74.00
21108;DHT22;10712;52.944;9.098;2023-07-29T12:37:37;21.90;73.60
21108;DHT22;10712;52.944;9.098;2023-07-29T12:40:08;22.10;73.90
21108;DHT22;10712;52.944;9.098;2023-07-29T12:42:45;22.20;74.20
21108;DHT22;10712;52.944;9.098;2023-07-29T12:45:11;22.30;74.10
21108;DHT22;10712;52.944;9.098;2023-07-29T12:47:37;22.40;73.70
21108;DHT22;10712;52.944;9.098;2023-07-29T12:50:03;22.50;73.80
21108;DHT22;10712;52.944;9.098;2023-07-29T12:52:29;22.60;73.70
21108;DHT22;10712;52.944;9.098;2023-07-29T12:54:54;22.70;72.80
21108;DHT22;10712;52.944;9.098;2023-07-29T12:57:20;22.70;72.60
21108;DHT22;10712;52.944;9.098;2023-07-29T12:59:46;22.70;72.80
21108;DHT22;10712;52.944;9.098;2023-07-29T13:02:11;22.80;72.60
21108;DHT22;10712;52.944;9.098;2023-07-29T13:04:37;22.90;71.30
21108;DHT22;10712;52.944;9.098;2023-07-29T13:07:03;22.90;70.80
21108;DHT22;10712;52.944;9.098;2023-07-29T13:09:30;22.90;70.80
21108;DHT22;10712;52.944;9.098;2023-07-29T13:11:56;23.00;71.00
21108;DHT22;10712;52.944;9.098;2023-07-29T13:14:22;23.00;70.30
21108;DHT22;10712;52.944;9.098;2023-07-29T13:16:47;22.90;70.10
21108;DHT22;10712;52.944;9.098;2023-07-29T13:19:13;22.90;69.70
21108;DHT22;10712;52.944;9.098;2023-07-29T13:21:39;22.90;70.20
21108;DHT22;10712;52.944;9.098;2023-07-29T13:24:05;22.90;70.10
21108;DHT22;10712;52.944;9.098;2023-07-29T13:26:30;22.90;69.00
21108;DHT22;10712;52.944;9.098;2023-07-29T13:28:56;22.90;69.30
21108;DHT22;10712;52.944;9.098;2023-07-29T13:31:22;23.00;70.20
21108;DHT22;10712;52.944;9.098;2023-07-29T13:33:48;23.00;70.00
21108;DHT22;10712;52.944;9.098;2023-07-29T13:36:14;23.10;70.10
21108;DHT22;10712;52.944;9.098;2023-07-29T13:38:39;23.10;70.90
21108;DHT22;10712;52.944;9.098;2023-07-29T13:41:06;23.10;70.80
21108;DHT22;10712;52.944;9.098;2023-07-29T13:43:32;23.20;70.70
21108;DHT22;10712;52.944;9.098;2023-07-29T13:45:58;23.20;70.80
21108;DHT22;10712;52.944;9.098;2023-07-29T13:48:24;23.30;70.30
21108;DHT22;10712;52.944;9.098;2023-07-29T13:50:50;23.30;69.60
21108;DHT22;10712;52.944;9.098;2023-07-29T13:53:16;23.30;69.40
21108;DHT22;10712;52.944;9.098;2023-07-29T13:55:42;23.30;68.90
21108;DHT22;10712;52.944;9.098;2023-07-29T13:58:08;23.30;69.10
21108;DHT22;10712;52.944;9.098;2023-07-29T14:00:34;23.20;69.50
21108;DHT22;10712;52.944;9.098;2023-07-29T14:02:59;23.10;69.80
21108;DHT22;10712;52.944;9.098;2023-07-29T14:05:25;23.10;70.20
21108;DHT22;10712;52.944;9.098;2023-07-29T14:07:51;23.10;70.80
21108;DHT22;10712;52.944;9.098;2023-07-29T14:10:17;23.20;70.90
21108;DHT22;10712;52.944;9.098;2023-07-29T14:12:42;23.30;70.20
21108;DHT22;10712;52.944;9.098;2023-07-29T14:15:08;23.30;70.60
21108;DHT22;10712;52.944;9.098;2023-07-29T14:17:34;23.30;70.10
21108;DHT22;10712;52.944;9.098;2023-07-29T14:20:00;23.30;70.30
21108;DHT22;10712;52.944;9.098;2023-07-29T14:22:26;23.30;70.50
21108;DHT22;10712;52.944;9.098;2023-07-29T14:24:52;23.40;69.90
21108;DHT22;10712;52.944;9.098;2023-07-29T14:27:18;23.50;69.00
21108;DHT22;10712;52.944;9.098;2023-07-29T14:29:44;23.60;68.50
21108;DHT22;10712;52.944;9.098;2023-07-29T14:32:10;23.60;68.20
21108;DHT22;10712;52.944;9.098;2023-07-29T14:34:36;23.70;68.50
21108;DHT22;10712;52.944;9.098;2023-07-29T14:37:01;23.70;68.50
21108;DHT22;10712;52.944;9.098;2023-07-29T14:39:27;23.80;68.20
21108;DHT22;10712;52.944;9.098;2023-07-29T14:41:53;23.70;68.20
21108;DHT22;10712;52.944;9.098;2023-07-29T14:44:19;23.80;67.70
21108;DHT22;10712;52.944;9.098;2023-07-29T14:46:44;23.80;67.30
21108;DHT22;10712;52.944;9.098;2023-07-29T14:49:10;23.80;67.60
21108;DHT22;10712;52.944;9.098;2023-07-29T14:51:36;23.80;67.20
21108;DHT22;10712;52.944;9.098;2023-07-29T14:54:03;23.80;67.40
21108;DHT22;10712;52.944;9.098;2023-07-29T14:56:28;23.70;67.70
21108;DHT22;10712;52.944;9.098;2023-07-29T14:58:54;23.70;68.20
21108;DHT22;10712;52.944;9.098;2023-07-29T15:01:20;23.70;67.40
21108;DHT22;10712;52.944;9.098;2023-07-29T15:03:45;23.70;67.20
21108;DHT22;10712;52.944;9.098;2023-07-29T15:06:11;23.70;67.90
21108;DHT22;10712;52.944;9.098;2023-07-29T15:08:37;23.80;68.40
21108;DHT22;10712;52.944;9.098;2023-07-29T15:11:03;23.80;68.40
21108;DHT22;10712;52.944;9.098;2023-07-29T15:13:28;23.80;67.40
21108;DHT22;10712;52.944;9.098;2023-07-29T15:15:54;23.80;66.60
21108;DHT22;10712;52.944;9.098;2023-07-29T15:18:20;23.80;66.40
21108;DHT22;10712;52.944;9.098;2023-07-29T15:20:46;23.80;67.10
21108;DHT22;10712;52.944;9.098;2023-07-29T15:23:11;23.80;66.90
21108;DHT22;10712;52.944;9.098;2023-07-29T15:25:37;23.70;66.90
21108;DHT22;10712;52.944;9.098;2023-07-29T15:28:04;23.60;66.90
21108;DHT22;10712;52.944;9.098;2023-07-29T15:30:30;23.50;67.40
21108;DHT22;10712;52.944;9.098;2023-07-29T15:32:56;23.50;67.20
21108;DHT22;10712;52.944;9.098;2023-07-29T15:35:22;23.40;68.00
21108;DHT22;10712;52.944;9.098;2023-07-29T15:37:48;23.30;68.40
21108;DHT22;10712;52.944;9.098;2023-07-29T15:40:14;23.30;68.60
21108;DHT22;10712;52.944;9.098;2023-07-29T15:42:40;23.30;68.80
21108;DHT22;10712;52.944;9.098;2023-07-29T15:45:06;23.30;69.00